createdAt,value
2019-02-18T00:00:51.092Z,18.70
2019-02-18T00:03:20.373Z,19.73
2019-02-18T00:05:49.673Z,18.80
2019-02-18T00:08:19.008Z,15.77
2019-02-18T00:10:48.352Z,19.10
2019-02-18T00:13:17.678Z,17.53
2019-02-18T00:15:47.020Z,21.97
2019-02-18T00:18:16.335Z,19.73
2019-02-18T00:20:45.792Z,20.33
2019-02-18T00:23:15.110Z,20.13
2019-02-18T00:25:44.401Z,19.77
2019-02-18T00:28:13.731Z,20.07
2019-02-18T00:30:43.052Z,23.67
2019-02-18T00:33:12.336Z,20.80
2019-02-18T00:35:41.660Z,23.00
2019-02-18T00:38:10.944Z,21.60
2019-02-18T00:40:40.230Z,23.00
2019-02-18T00:43:09.557Z,19.50
2019-02-18T00:45:38.851Z,18.47
2019-02-18T00:48:08.126Z,20.53
2019-02-18T00:50:37.449Z,19.67
2019-02-18T00:53:06.760Z,20.83
2019-02-18T00:55:36.036Z,17.13
2019-02-18T00:58:05.362Z,18.67
2019-02-18T01:00:34.726Z,19.90
2019-02-18T01:03:04.711Z,19.90
2019-02-18T01:05:34.036Z,19.07
2019-02-18T01:08:03.318Z,18.50
2019-02-18T01:10:32.640Z,18.23
2019-02-18T01:13:01.921Z,18.80
2019-02-18T01:15:31.236Z,17.30
2019-02-18T01:18:00.550Z,18.00
2019-02-18T01:20:29.878Z,17.07
2019-02-18T01:22:59.213Z,17.57
2019-02-18T01:25:28.568Z,17.60
2019-02-18T01:27:57.904Z,17.17
2019-02-18T01:30:27.227Z,19.63
2019-02-18T01:32:56.515Z,18.13
2019-02-18T01:35:25.872Z,16.87
2019-02-18T01:37:55.151Z,17.53
2019-02-18T01:40:24.487Z,20.17
2019-02-18T01:42:53.808Z,17.90
2019-02-18T01:45:23.127Z,20.10
2019-02-18T01:47:52.480Z,19.47
2019-02-18T01:50:21.876Z,18.87
2019-02-18T01:52:51.214Z,18.80
2019-02-18T01:55:20.506Z,18.63
2019-02-18T01:57:49.827Z,17.43
2019-02-18T02:00:19.168Z,23.40
2019-02-18T02:02:48.447Z,19.53
2019-02-18T02:05:18.685Z,19.53
2019-02-18T02:07:55.937Z,19.80
2019-02-18T02:10:19.068Z,18.00
2019-02-18T02:12:48.793Z,17.30
2019-02-18T02:15:21.391Z,15.33
2019-02-18T02:17:50.675Z,17.23
2019-02-18T02:20:20.000Z,18.67
2019-02-18T02:22:50.475Z,21.73
2019-02-18T02:25:19.783Z,18.50
2019-02-18T02:27:49.117Z,21.67
2019-02-18T02:30:18.439Z,18.03
2019-02-18T02:32:47.865Z,18.63
2019-02-18T02:35:17.224Z,19.43
2019-02-18T02:37:46.571Z,19.13
2019-02-18T02:40:15.938Z,20.50
2019-02-18T02:42:45.252Z,17.20
2019-02-18T02:45:15.069Z,21.13
2019-02-18T02:47:44.361Z,16.87
2019-02-18T02:50:14.107Z,18.93
2019-02-18T02:52:44.036Z,17.73
2019-02-18T02:55:13.749Z,15.77
2019-02-18T02:57:43.029Z,16.90
2019-02-18T03:00:12.486Z,16.37
2019-02-18T03:02:41.813Z,15.93
2019-02-18T03:05:11.624Z,17.77
2019-02-18T03:07:40.966Z,16.07
2019-02-18T03:10:10.657Z,17.37
2019-02-18T03:12:39.984Z,17.73
2019-02-18T03:15:09.879Z,18.83
2019-02-18T03:17:39.276Z,20.03
2019-02-18T03:20:08.808Z,20.07
2019-02-18T03:22:38.217Z,21.57
2019-02-18T03:25:24.212Z,18.20
2019-02-18T03:27:59.965Z,18.63
2019-02-18T03:30:56.304Z,20.63
2019-02-18T03:33:32.989Z,20.17
2019-02-18T03:36:02.280Z,20.27
2019-02-18T03:38:32.155Z,18.13
2019-02-18T03:41:03.430Z,19.83
2019-02-18T03:43:33.297Z,19.47
2019-02-18T03:46:02.607Z,20.80
2019-02-18T03:48:31.896Z,21.70
2019-02-18T03:51:01.193Z,19.03
2019-02-18T03:53:30.570Z,23.77
2019-02-18T03:55:59.898Z,17.40
2019-02-18T03:58:29.278Z,20.20
2019-02-18T04:00:59.114Z,19.13
2019-02-18T04:03:28.901Z,19.43
2019-02-18T04:05:58.230Z,20.83
2019-02-18T04:08:27.512Z,18.83
2019-02-18T04:10:56.855Z,19.70
2019-02-18T04:13:26.225Z,19.83
2019-02-18T04:15:55.517Z,20.67
2019-02-18T04:18:24.848Z,21.57
2019-02-18T04:20:54.172Z,19.00
2019-02-18T04:23:23.497Z,18.27
2019-02-18T04:25:52.859Z,20.17
2019-02-18T04:28:22.189Z,20.67
2019-02-18T04:30:51.539Z,18.03
2019-02-18T04:33:20.911Z,20.70
2019-02-18T04:35:50.237Z,21.03
2019-02-18T04:38:19.577Z,22.77
2019-02-18T04:40:48.908Z,19.93
2019-02-18T04:43:18.212Z,20.20
2019-02-18T04:45:47.601Z,22.27
2019-02-18T04:48:16.882Z,21.33
2019-02-18T04:50:46.196Z,21.73
2019-02-18T04:53:15.528Z,22.10
2019-02-18T04:55:44.809Z,17.17
2019-02-18T04:58:14.160Z,21.63
2019-02-18T05:00:43.502Z,19.07
2019-02-18T05:03:12.838Z,22.33
2019-02-18T05:05:42.130Z,23.37
2019-02-18T05:08:11.465Z,18.00
2019-02-18T05:10:40.878Z,20.60
2019-02-18T05:13:10.163Z,20.47
2019-02-18T05:15:40.807Z,22.13
2019-02-18T05:18:10.712Z,17.33
2019-02-18T05:20:39.996Z,20.63
2019-02-18T05:23:09.332Z,18.57
2019-02-18T05:25:38.615Z,17.60
2019-02-18T05:28:07.924Z,18.93
2019-02-18T05:30:37.210Z,22.93
2019-02-18T05:33:06.557Z,24.73
2019-02-18T05:35:35.890Z,23.13
2019-02-18T05:38:05.276Z,25.77
2019-02-18T05:40:34.559Z,26.70
2019-02-18T05:43:03.910Z,25.90
2019-02-18T05:45:33.277Z,24.10
2019-02-18T05:48:02.569Z,22.37
2019-02-18T05:50:31.905Z,20.60
2019-02-18T05:53:01.320Z,21.13
2019-02-18T05:55:31.702Z,26.20
2019-02-18T05:58:00.988Z,21.83
2019-02-18T06:00:30.326Z,28.80
2019-02-18T06:02:59.720Z,22.97
2019-02-18T06:05:29.125Z,25.17
2019-02-18T06:07:58.418Z,24.23
2019-02-18T06:10:27.716Z,20.23
2019-02-18T06:12:57.112Z,22.90
2019-02-18T06:15:26.413Z,21.77
2019-02-18T06:17:55.696Z,22.23
2019-02-18T06:20:25.033Z,23.70
2019-02-18T06:22:54.320Z,21.10
2019-02-18T06:25:23.679Z,19.57
2019-02-18T06:27:53.017Z,23.33
2019-02-18T06:30:22.392Z,21.97
2019-02-18T06:32:51.747Z,20.43
2019-02-18T06:35:21.138Z,23.43
2019-02-18T06:37:50.460Z,18.60
2019-02-18T06:40:19.753Z,27.87
2019-02-18T06:42:49.092Z,17.27
2019-02-18T06:45:37.352Z,27.50
2019-02-18T06:48:18.988Z,33.37
2019-02-18T06:50:48.267Z,57.43
2019-02-18T06:53:17.618Z,31.03
2019-02-18T06:55:46.919Z,27.57
2019-02-18T06:58:35.214Z,27.50
2019-02-18T07:01:15.769Z,32.10
2019-02-18T07:03:58.116Z,36.70
2019-02-18T07:06:55.545Z,29.40
2019-02-18T07:09:30.121Z,26.77
2019-02-18T07:12:04.829Z,24.73
2019-02-18T07:14:34.212Z,28.30
2019-02-18T07:17:03.612Z,31.20
2019-02-18T07:19:33.019Z,35.60
2019-02-18T07:22:02.369Z,36.37
2019-02-18T07:24:31.704Z,33.37
2019-02-18T07:27:01.140Z,32.70
2019-02-18T07:29:30.514Z,43.17
2019-02-18T07:31:59.891Z,52.07
2019-02-18T07:34:29.323Z,46.90
2019-02-18T07:36:58.697Z,46.03
2019-02-18T07:39:28.132Z,41.67
2019-02-18T07:41:57.696Z,29.37
2019-02-18T07:44:28.040Z,23.33
2019-02-18T07:46:57.484Z,25.93
2019-02-18T07:49:26.868Z,21.37
2019-02-18T07:51:56.262Z,26.63
2019-02-18T07:54:25.813Z,21.70
2019-02-18T07:56:55.290Z,20.07
2019-02-18T07:59:24.701Z,18.00
2019-02-18T08:01:54.122Z,20.20
2019-02-18T08:04:23.637Z,18.80
2019-02-18T08:06:54.133Z,23.90
2019-02-18T08:09:23.460Z,22.53
2019-02-18T08:11:52.882Z,20.93
2019-02-18T08:14:22.181Z,20.20
2019-02-18T08:16:51.579Z,26.27
2019-02-18T08:19:20.975Z,22.70
2019-02-18T08:21:50.428Z,17.13
2019-02-18T08:24:19.741Z,16.30
2019-02-18T08:26:49.078Z,14.07
2019-02-18T08:29:18.501Z,13.47
2019-02-18T08:31:47.845Z,12.57
2019-02-18T08:34:17.208Z,13.47
2019-02-18T08:36:46.504Z,11.50
2019-02-18T08:39:15.845Z,13.60
2019-02-18T08:41:45.199Z,12.47
2019-02-18T08:44:14.560Z,14.07
2019-02-18T08:46:43.941Z,13.47
2019-02-18T08:49:13.330Z,13.97
2019-02-18T08:51:42.757Z,18.57
2019-02-18T08:54:12.177Z,17.83
2019-02-18T08:56:42.564Z,17.13
2019-02-18T08:59:12.024Z,19.70
2019-02-18T09:01:41.539Z,19.70
2019-02-18T09:04:10.852Z,21.23
2019-02-18T09:06:40.180Z,19.97
2019-02-18T09:09:09.919Z,23.90
2019-02-18T09:11:39.416Z,19.17
2019-02-18T09:14:08.792Z,18.60
2019-02-18T09:16:38.128Z,18.23
2019-02-18T09:19:07.448Z,21.40
2019-02-18T09:21:36.748Z,16.90
2019-02-18T09:24:25.100Z,20.20
2019-02-18T09:26:54.396Z,15.93
2019-02-18T09:29:23.704Z,16.87
2019-02-18T09:31:53.036Z,20.47
2019-02-18T09:34:22.373Z,20.30
2019-02-18T09:36:51.745Z,22.27
2019-02-18T09:39:30.570Z,26.03
2019-02-18T09:41:53.018Z,23.77
2019-02-18T09:44:22.297Z,19.60
2019-02-18T09:46:52.032Z,19.60
2019-02-18T09:49:21.316Z,26.20
2019-02-18T09:51:50.689Z,24.77
2019-02-18T09:54:19.965Z,21.97
2019-02-18T09:56:49.297Z,19.07
2019-02-18T09:59:18.597Z,25.57
2019-02-18T10:01:47.919Z,21.37
2019-02-18T10:04:17.286Z,21.00
2019-02-18T10:06:46.640Z,17.93
2019-02-18T10:09:16.004Z,16.67
2019-02-18T10:11:45.377Z,19.53
2019-02-18T10:14:14.742Z,19.80
2019-02-18T10:16:44.175Z,20.13
2019-02-18T10:19:14.616Z,22.73
2019-02-18T10:21:43.955Z,24.27
2019-02-18T10:24:13.376Z,20.00
2019-02-18T10:26:42.818Z,21.17
2019-02-18T10:29:12.186Z,20.70
2019-02-18T10:31:41.819Z,22.87
2019-02-18T10:34:11.872Z,24.53
2019-02-18T10:36:41.229Z,26.30
2019-02-18T10:39:10.628Z,26.13
2019-02-18T10:41:39.988Z,28.17
2019-02-18T10:44:09.408Z,29.60
2019-02-18T10:46:40.614Z,29.33
2019-02-18T10:49:19.425Z,32.73
2019-02-18T10:51:40.822Z,33.07
2019-02-18T10:54:10.489Z,32.03
2019-02-18T10:56:40.018Z,34.23
2019-02-18T10:59:09.415Z,33.43
2019-02-18T11:01:38.785Z,32.57
2019-02-18T11:04:08.172Z,31.03
2019-02-18T11:06:37.527Z,32.03
2019-02-18T11:09:10.531Z,30.60
2019-02-18T11:11:39.897Z,33.03
2019-02-18T11:14:09.231Z,32.97
2019-02-18T11:16:38.800Z,35.53
2019-02-18T11:19:08.160Z,33.10
2019-02-18T11:21:37.482Z,34.80
2019-02-18T11:24:06.878Z,35.43
2019-02-18T11:26:36.161Z,32.83
2019-02-18T11:29:05.493Z,33.63
2019-02-18T11:31:34.860Z,33.17
2019-02-18T11:34:04.257Z,31.70
2019-02-18T11:36:33.664Z,33.00
2019-02-18T11:39:05.804Z,32.37
2019-02-18T11:41:35.204Z,34.47
2019-02-18T11:44:05.440Z,34.80
2019-02-18T11:46:35.790Z,35.43
2019-02-18T11:49:05.281Z,39.97
2019-02-18T11:51:34.700Z,35.33
2019-02-18T11:54:04.053Z,37.77
2019-02-18T11:56:34.430Z,37.87
2019-02-18T11:59:03.870Z,36.17
2019-02-18T12:01:34.312Z,36.70
2019-02-18T12:04:03.818Z,37.07
2019-02-18T12:06:33.245Z,37.77
2019-02-18T12:09:02.608Z,39.20
2019-02-18T12:11:38.146Z,37.00
2019-02-18T12:14:04.297Z,39.27
2019-02-18T12:16:33.872Z,38.77
2019-02-18T12:19:03.308Z,38.27
2019-02-18T12:21:33.765Z,42.17
2019-02-18T12:24:03.146Z,41.07
2019-02-18T12:26:33.397Z,40.80
2019-02-18T12:29:02.763Z,47.33
2019-02-18T12:31:32.206Z,48.67
2019-02-18T12:34:01.656Z,54.10
2019-02-18T12:36:30.980Z,55.73
2019-02-18T12:39:01.329Z,51.97
2019-02-18T12:41:31.443Z,52.93
2019-02-18T12:44:00.829Z,55.10
2019-02-18T12:46:30.252Z,56.83
2019-02-18T12:49:00.656Z,54.23
2019-02-18T12:51:30.080Z,57.17
2019-02-18T12:54:05.049Z,56.97
2019-02-18T12:56:30.696Z,54.57
2019-02-18T12:59:00.096Z,56.87
2019-02-18T13:01:29.500Z,57.33
2019-02-18T13:03:58.955Z,56.80
2019-02-18T13:06:28.406Z,57.27
2019-02-18T13:08:58.897Z,58.00
2019-02-18T13:11:28.336Z,59.00
2019-02-18T13:13:58.797Z,57.37
2019-02-18T13:16:28.193Z,61.50
2019-02-18T13:18:57.612Z,61.93
2019-02-18T13:21:26.992Z,59.03
2019-02-18T13:23:56.434Z,61.13
2019-02-18T13:26:25.890Z,56.63
2019-02-18T13:28:56.129Z,60.77
2019-02-18T13:31:25.580Z,56.87
2019-02-18T13:33:56.070Z,62.50
2019-02-18T13:36:25.439Z,61.97
2019-02-18T13:38:54.880Z,59.20
2019-02-18T13:41:24.231Z,55.37
2019-02-18T13:43:54.532Z,58.37
2019-02-18T13:46:23.923Z,56.77
2019-02-18T13:48:53.344Z,57.97
2019-02-18T13:51:24.439Z,62.90
2019-02-18T13:53:53.780Z,58.47
2019-02-18T13:56:23.125Z,54.00
2019-02-18T13:58:53.202Z,56.87
2019-02-18T14:01:22.564Z,59.87
2019-02-18T14:03:51.996Z,58.27
2019-02-18T14:06:21.281Z,57.07
2019-02-18T14:08:50.734Z,55.30
2019-02-18T14:11:20.159Z,52.57
2019-02-18T14:13:50.260Z,54.33
2019-02-18T14:16:19.574Z,57.27
2019-02-18T14:18:49.020Z,55.33
2019-02-18T14:21:18.421Z,57.60
2019-02-18T14:23:47.881Z,55.83
2019-02-18T14:26:17.237Z,58.33
2019-02-18T14:28:46.610Z,53.33
2019-02-18T14:31:17.066Z,53.20
2019-02-18T14:33:46.512Z,54.13
2019-02-18T14:36:16.021Z,53.20
2019-02-18T14:38:45.431Z,57.53
2019-02-18T14:41:14.858Z,56.63
2019-02-18T14:43:44.277Z,52.53
2019-02-18T14:46:13.761Z,52.27
2019-02-18T14:48:43.188Z,54.13
2019-02-18T14:51:13.595Z,54.20
2019-02-18T14:53:43.012Z,52.50
2019-02-18T14:56:15.153Z,54.97
2019-02-18T14:58:44.516Z,54.63
2019-02-18T15:01:14.326Z,53.33
2019-02-18T15:03:43.800Z,52.80
2019-02-18T15:06:13.125Z,53.30
2019-02-18T15:08:42.554Z,50.50
2019-02-18T15:11:12.744Z,51.60
2019-02-18T15:13:42.051Z,51.93
2019-02-18T15:16:11.376Z,50.23
2019-02-18T15:18:40.692Z,50.60
2019-02-18T15:21:10.149Z,53.40
2019-02-18T15:23:39.556Z,55.63
2019-02-18T15:26:09.592Z,52.50
2019-02-18T15:28:38.992Z,52.30
2019-02-18T15:31:09.116Z,51.47
2019-02-18T15:33:38.512Z,51.93
2019-02-18T15:36:07.873Z,53.83
2019-02-18T15:38:37.244Z,52.73
2019-02-18T15:41:06.642Z,53.13
2019-02-18T15:43:36.795Z,55.17
2019-02-18T15:46:06.656Z,56.90
2019-02-18T15:48:36.451Z,57.13
2019-02-18T15:51:06.751Z,59.63
2019-02-18T15:53:36.392Z,60.67
2019-02-18T15:56:05.966Z,66.27
2019-02-18T15:58:36.548Z,67.73
2019-02-18T16:01:06.493Z,68.23
2019-02-18T16:03:36.119Z,71.83
2019-02-18T16:06:05.542Z,69.37
2019-02-18T16:08:35.866Z,67.63
2019-02-18T16:11:05.219Z,66.23
2019-02-18T16:13:34.752Z,67.83
2019-02-18T16:16:04.156Z,68.40
2019-02-18T16:18:34.416Z,64.63
2019-02-18T16:21:03.831Z,66.03
2019-02-18T16:23:34.032Z,60.37
2019-02-18T16:26:03.542Z,70.20
2019-02-18T16:28:33.696Z,63.63
2019-02-18T16:31:03.068Z,67.30
2019-02-18T16:33:32.480Z,96.60
2019-02-18T16:36:01.844Z,92.77
2019-02-18T16:38:31.247Z,69.70
2019-02-18T16:41:00.646Z,59.63
2019-02-18T16:43:30.741Z,51.80
2019-02-18T16:46:00.084Z,56.90
2019-02-18T16:48:30.272Z,53.40
2019-02-18T16:51:00.440Z,60.27
2019-02-18T16:53:29.745Z,53.53
2019-02-18T16:55:59.137Z,57.90
2019-02-18T16:58:28.520Z,57.57
2019-02-18T17:00:58.532Z,61.33
2019-02-18T17:03:27.890Z,58.77
2019-02-18T17:05:58.087Z,61.27
2019-02-18T17:08:27.455Z,68.13
2019-02-18T17:10:57.852Z,65.00
2019-02-18T17:13:28.276Z,66.30
2019-02-18T17:15:58.686Z,68.30
2019-02-18T17:18:29.056Z,65.63
2019-02-18T17:20:58.407Z,63.07
2019-02-18T17:23:27.868Z,55.60
2019-02-18T17:25:57.341Z,57.37
2019-02-18T17:28:26.780Z,53.80
2019-02-18T17:30:56.241Z,54.93
2019-02-18T17:33:25.655Z,58.80
2019-02-18T17:35:54.922Z,67.10
2019-02-18T17:38:24.290Z,79.27
2019-02-18T17:40:53.696Z,87.67
2019-02-18T17:43:23.100Z,62.73
2019-02-18T17:45:52.501Z,68.33
2019-02-18T17:48:21.894Z,66.73
2019-02-18T17:50:51.318Z,78.17
2019-02-18T17:53:20.680Z,68.70
2019-02-18T17:55:50.044Z,64.07
2019-02-18T17:58:19.462Z,59.00
2019-02-18T18:00:50.920Z,60.47
2019-02-18T18:03:20.252Z,56.57
2019-02-18T18:05:49.643Z,55.20
2019-02-18T18:08:18.927Z,56.90
2019-02-18T18:10:48.253Z,59.73
2019-02-18T18:13:24.986Z,55.47
2019-02-18T18:15:48.668Z,55.53
2019-02-18T18:18:20.021Z,59.17
2019-02-18T18:20:49.415Z,76.47
2019-02-18T18:23:18.791Z,61.80
2019-02-18T18:25:48.278Z,61.80
2019-02-18T18:28:17.722Z,70.17
2019-02-18T18:30:47.176Z,69.03
2019-02-18T18:33:17.376Z,65.63
2019-02-18T18:35:46.751Z,66.07
2019-02-18T18:38:17.120Z,63.70
2019-02-18T18:40:46.532Z,66.40
2019-02-18T18:43:16.061Z,68.77
2019-02-18T18:45:45.495Z,68.93
2019-02-18T18:48:14.989Z,67.73
2019-02-18T18:50:44.400Z,77.63
2019-02-18T18:53:15.019Z,69.07
2019-02-18T18:55:44.368Z,70.00
2019-02-18T18:58:13.740Z,82.53
2019-02-18T19:00:43.069Z,86.83
2019-02-18T19:03:12.441Z,73.80
2019-02-18T19:05:41.850Z,71.93
2019-02-18T19:08:11.501Z,67.97
2019-02-18T19:10:40.864Z,66.97
2019-02-18T19:13:10.879Z,68.53
2019-02-18T19:15:49.253Z,69.60
2019-02-18T19:18:12.140Z,99.57
2019-02-18T19:20:41.483Z,84.13
2019-02-18T19:23:12.001Z,102.80
2019-02-18T19:25:41.446Z,75.43
2019-02-18T19:28:10.887Z,83.03
2019-02-18T19:30:40.311Z,73.73
2019-02-18T19:33:09.732Z,66.57
2019-02-18T19:35:39.121Z,71.60
2019-02-18T19:38:08.656Z,71.87
2019-02-18T19:40:37.999Z,72.50
2019-02-18T19:43:08.265Z,76.37
2019-02-18T19:45:37.750Z,72.90
2019-02-18T19:48:07.425Z,79.93
2019-02-18T19:50:36.907Z,70.77
2019-02-18T19:53:06.362Z,83.00
2019-02-18T19:55:35.808Z,77.27
2019-02-18T19:58:05.267Z,72.17
2019-02-18T20:00:34.706Z,71.50
2019-02-18T20:03:05.086Z,74.63
2019-02-18T20:05:34.556Z,77.30
2019-02-18T20:08:03.934Z,73.63
2019-02-18T20:10:34.118Z,73.87
2019-02-18T20:13:04.166Z,71.10
2019-02-18T20:15:33.659Z,76.87
2019-02-18T20:18:03.072Z,69.60
2019-02-18T20:20:32.464Z,75.90
2019-02-18T20:23:01.856Z,70.90
2019-02-18T20:25:32.052Z,76.77
2019-02-18T20:28:01.556Z,70.83
2019-02-18T20:30:32.782Z,77.20
2019-02-18T20:33:02.178Z,74.00
2019-02-18T20:35:31.729Z,74.23
2019-02-18T20:38:01.134Z,76.53
2019-02-18T20:40:30.560Z,73.67
2019-02-18T20:43:00.035Z,93.70
2019-02-18T20:45:29.360Z,83.13
2019-02-18T20:47:58.737Z,96.00
2019-02-18T20:50:28.119Z,93.77
2019-02-18T20:52:57.585Z,97.77
2019-02-18T20:55:27.076Z,98.53
2019-02-18T20:57:56.439Z,97.77
2019-02-18T21:00:25.208Z,93.10
2019-02-18T21:02:54.600Z,115.50
2019-02-18T21:05:23.936Z,114.67
2019-02-18T21:07:55.228Z,114.53
2019-02-18T21:10:24.628Z,105.57
2019-02-18T21:12:54.014Z,93.87
2019-02-18T21:15:23.432Z,95.77
2019-02-18T21:17:53.848Z,88.13
2019-02-18T21:20:24.390Z,89.23
2019-02-18T21:22:54.815Z,86.57
2019-02-18T21:25:24.276Z,93.33
2019-02-18T21:27:53.722Z,89.77
2019-02-18T21:30:23.108Z,84.13
2019-02-18T21:32:52.564Z,85.07
2019-02-18T21:35:22.042Z,81.57
2019-02-18T21:37:51.396Z,90.63
2019-02-18T21:40:20.740Z,80.83
2019-02-18T21:42:50.132Z,82.37
2019-02-18T21:45:18.912Z,80.73
2019-02-18T21:47:49.332Z,88.03
2019-02-18T21:50:19.608Z,82.37
2019-02-18T21:52:49.036Z,92.63
2019-02-18T21:55:18.462Z,91.57
2019-02-18T21:57:47.812Z,86.40
2019-02-18T22:00:22.285Z,85.53
2019-02-18T22:02:51.634Z,91.03
2019-02-18T22:05:21.197Z,86.17
2019-02-18T22:07:50.583Z,85.13
2019-02-18T22:10:19.907Z,80.10
2019-02-18T22:12:49.256Z,81.93
2019-02-18T22:15:18.571Z,74.87
2019-02-18T22:17:47.960Z,76.70
2019-02-18T22:20:17.622Z,82.87
2019-02-18T22:22:47.024Z,83.50
2019-02-18T22:25:16.298Z,79.23
2019-02-18T22:27:45.612Z,85.43
2019-02-18T22:30:15.408Z,83.87
2019-02-18T22:32:44.832Z,84.70
2019-02-18T22:35:15.013Z,90.33
2019-02-18T22:37:44.390Z,85.63
2019-02-18T22:40:14.397Z,87.30
2019-02-18T22:42:43.835Z,91.17
2019-02-18T22:45:14.076Z,83.97
2019-02-18T22:47:43.543Z,81.40
2019-02-18T22:50:13.165Z,78.93
2019-02-18T22:52:42.512Z,79.50
2019-02-18T22:55:12.551Z,80.87
2019-02-18T22:57:41.883Z,76.80
2019-02-18T23:00:32.248Z,80.10
2019-02-18T23:03:01.578Z,77.53
2019-02-18T23:05:30.970Z,80.20
2019-02-18T23:08:00.319Z,82.60
2019-02-18T23:10:29.704Z,77.63
2019-02-18T23:12:59.068Z,77.87
2019-02-18T23:15:28.469Z,77.93
2019-02-18T23:17:58.568Z,75.70
2019-02-18T23:20:27.952Z,74.63
2019-02-18T23:22:57.266Z,83.60
2019-02-18T23:25:26.576Z,79.80
2019-02-18T23:27:55.876Z,76.57
2019-02-18T23:30:25.160Z,78.93
2019-02-18T23:32:55.367Z,83.63
2019-02-18T23:35:24.663Z,84.23
2019-02-18T23:37:53.972Z,77.00
2019-02-18T23:40:23.245Z,82.70
2019-02-18T23:42:52.595Z,80.13
2019-02-18T23:45:21.897Z,81.40
2019-02-18T23:47:51.492Z,77.80
2019-02-18T23:50:20.811Z,93.30
2019-02-18T23:52:50.300Z,88.17
2019-02-18T23:55:19.628Z,82.63
2019-02-18T23:57:48.931Z,87.97
